TAF KBTR
KBTR 270521Z 2706/2806 VRB04KT P6SM OVC250 FM280200 VRB04KT P6SM SCT040 BKN080=
METAR KBTR
WC KBTR
WS KBTR
WV KBTR